UNIFLY Flight Plan

Who is Online Now?

Pilot VA/Community Aircraft Flight DTG (NM) Flight Plan
VXL109-Tom / EXS766 Airbus A330-200 Madeira/Funchal - Cristiano Ronaldo | FNC - MAN | Manchester 51 NM Plan
VXL007-Adam / RUK2801 Boeing 737-800 Billund | BLL - MAN | Manchester 8 NM Plan
Carman / QFA0395 T144 Baku Heydar Aliyev Intl | GYD - FNC | Madeira/Funchal - Cristiano Ronaldo 2735 NM Plan
VXL575 Ossian / G-MMAL P28R NO FLIGHT PLAN NOFLP Plan



This flight plan is only for information to UniFly and Simulator's and should NOT be used for real flight plans.

Flight Plan for: Carman on

This flight plan consits of airport data within the last 3 hours.

Current Flight Information

Origin Destination Alternative Aircraft
UBBB(GYD) | Baku Heydar Aliyev Intl LPMA(FNC) | Madeira/Funchal - Cristiano Ronaldo GCFV(FUE) | Fuerteventura "El Matorral" DCDesigns_Tu144_Qantas(T144) | QFA

Route: DCT XERBO N59 PARSU A422 UMH DCT LUMOM DCT SEVKU DCT ELEXI DCT TAN DCT SULAF DCT ELIKA N159 KAVOS DCT KUMBI DCT TANSA DCT LINGI DCT ARLOS DCT VANIX DCT KUTOS DCT BEKNI DCT SUDIK DCT UPLIT M732 PININ DCT ABDAB DCT DERIV DCT BUYAH DCT PIMAD UT100 GONZA DCT GOSOS DCT UPMUP DCT UNBUT DCT SOVIS UT100 TUTIS DCT 35N010W DCT GIKAR UQ11 SNT DCT


Cruise Information

Maxium Cruise Speed:

Maxium Cruise Altitude:

Current Position

Latitude: 33.461820162452

Longitude: 38.290484271268

Heading: 272

Current Speed: 543

Altitude Above Sea: 39919

Altitude Above Ground: 37444

Airport Information for: UBBB

Name: Baku Heydar Aliyev Intl

IATA: GYD

Metar: UBBB 131730Z 16006KT CAVOK 13/07 Q1016 NOSIG

Taf: TAF UBBB 131046Z 1312/1412 13010KT CAVOK TX20/1312Z TN10/1402Z TEMPO 1312/1318 16016KT FEW020 BECMG 1318/1320 17010KT TEMPO 1320/1404 5000 BR SCT012 TEMPO 1404/1412 19016KT

Airport Information for: LPMA

Name: Madeira/Funchal - Cristiano Ronaldo

IATA: FNC

Metar: LPMA 151030Z 06008KT CAVOK 20/15 Q1020

Taf: TAF LPMA 150500Z 1506/1606 VRB05KT 9999 FEW015 BECMG 1507/1510 04012KT

Airport Information for: GCFV

Name: Fuerteventura "El Matorral"

IATA: FUE

Metar: GCFV 150930Z 05005KT CAVOK 24/13 Q1017

Taf: TAF TAF GCFV 150800Z 1509/1609 30005KT CAVOK TX27/1514Z TN18/1606Z BECMG 1509/1511 08010KT BECMG 1518/1520 02005KT

Current World Location Map